sensor_id;sensor_type;location;lat;lon;timestamp;P1;durP1;ratioP1;P2;durP2;ratioP2
54983;SDS011;40884;53.562;9.940;2022-12-11T00:00:47;13.50;;;10.03;;
54983;SDS011;40884;53.562;9.940;2022-12-11T00:01:47;13.70;;;10.33;;
54983;SDS011;40884;53.562;9.940;2022-12-11T00:02:47;13.27;;;9.93;;
54983;SDS011;40884;53.562;9.940;2022-12-11T00:03:47;13.13;;;9.60;;
54983;SDS011;40884;53.562;9.940;2022-12-11T00:04:47;13.73;;;10.00;;
54983;SDS011;40884;53.562;9.940;2022-12-11T00:05:47;11.80;;;9.47;;
54983;SDS011;40884;53.562;9.940;2022-12-11T00:06:48;11.30;;;9.63;;
54983;SDS011;40884;53.562;9.940;2022-12-11T00:07:48;13.50;;;9.40;;
54983;SDS011;40884;53.562;9.940;2022-12-11T00:08:51;13.53;;;11.30;;
54983;SDS011;40884;53.562;9.940;2022-12-11T00:09:51;15.60;;;10.60;;
54983;SDS011;40884;53.562;9.940;2022-12-11T00:10:52;14.63;;;11.27;;
54983;SDS011;40884;53.562;9.940;2022-12-11T00:11:52;13.73;;;10.73;;
54983;SDS011;40884;53.562;9.940;2022-12-11T00:12:52;13.20;;;10.77;;
54983;SDS011;40884;53.562;9.940;2022-12-11T00:13:52;14.43;;;10.63;;
54983;SDS011;40884;53.562;9.940;2022-12-11T00:14:52;13.83;;;9.83;;
54983;SDS011;40884;53.562;9.940;2022-12-11T00:15:52;12.50;;;10.33;;
54983;SDS011;40884;53.562;9.940;2022-12-11T00:16:52;14.10;;;10.80;;
54983;SDS011;40884;53.562;9.940;2022-12-11T00:17:52;13.37;;;10.27;;
54983;SDS011;40884;53.562;9.940;2022-12-11T00:18:53;13.90;;;10.50;;
54983;SDS011;40884;53.562;9.940;2022-12-11T00:19:53;11.83;;;9.20;;
54983;SDS011;40884;53.562;9.940;2022-12-11T00:20:58;12.02;;;10.02;;
54983;SDS011;40884;53.562;9.940;2022-12-11T00:21:58;13.70;;;10.38;;
54983;SDS011;40884;53.562;9.940;2022-12-11T00:22:58;12.60;;;9.67;;
54983;SDS011;40884;53.562;9.940;2022-12-11T00:23:59;13.03;;;10.10;;
54983;SDS011;40884;53.562;9.940;2022-12-11T00:24:59;13.33;;;9.73;;
54983;SDS011;40884;53.562;9.940;2022-12-11T00:25:59;13.17;;;9.80;;
54983;SDS011;40884;53.562;9.940;2022-12-11T00:26:59;12.30;;;10.07;;
54983;SDS011;40884;53.562;9.940;2022-12-11T00:27:59;12.57;;;10.60;;
54983;SDS011;40884;53.562;9.940;2022-12-11T00:29:00;13.27;;;10.27;;
54983;SDS011;40884;53.562;9.940;2022-12-11T00:30:00;12.00;;;9.53;;
54983;SDS011;40884;53.562;9.940;2022-12-11T00:31:03;13.63;;;11.20;;
54983;SDS011;40884;53.562;9.940;2022-12-11T00:32:04;12.05;;;9.70;;
54983;SDS011;40884;53.562;9.940;2022-12-11T00:33:04;12.60;;;10.23;;
54983;SDS011;40884;53.562;9.940;2022-12-11T00:34:04;12.67;;;10.30;;
54983;SDS011;40884;53.562;9.940;2022-12-11T00:35:04;12.83;;;10.00;;
54983;SDS011;40884;53.562;9.940;2022-12-11T00:36:09;11.80;;;9.70;;
54983;SDS011;40884;53.562;9.940;2022-12-11T00:37:10;13.32;;;9.95;;
54983;SDS011;40884;53.562;9.940;2022-12-11T00:38:15;12.53;;;10.57;;
54983;SDS011;40884;53.562;9.940;2022-12-11T00:39:15;13.13;;;9.88;;
54983;SDS011;40884;53.562;9.940;2022-12-11T00:40:15;11.90;;;9.80;;
54983;SDS011;40884;53.562;9.940;2022-12-11T00:41:15;12.67;;;9.47;;
54983;SDS011;40884;53.562;9.940;2022-12-11T00:42:16;13.63;;;9.23;;
54983;SDS011;40884;53.562;9.940;2022-12-11T00:43:16;11.97;;;9.63;;
54983;SDS011;40884;53.562;9.940;2022-12-11T00:44:16;13.37;;;10.43;;
54983;SDS011;40884;53.562;9.940;2022-12-11T00:45:16;12.27;;;9.73;;
54983;SDS011;40884;53.562;9.940;2022-12-11T00:46:16;11.83;;;9.27;;
54983;SDS011;40884;53.562;9.940;2022-12-11T00:47:17;13.23;;;10.03;;
54983;SDS011;40884;53.562;9.940;2022-12-11T00:48:17;12.93;;;10.23;;
54983;SDS011;40884;53.562;9.940;2022-12-11T00:49:17;12.80;;;10.17;;
54983;SDS011;40884;53.562;9.940;2022-12-11T00:50:17;13.10;;;10.20;;
54983;SDS011;40884;53.562;9.940;2022-12-11T00:51:18;13.00;;;10.17;;
54983;SDS011;40884;53.562;9.940;2022-12-11T00:52:18;11.47;;;9.93;;
54983;SDS011;40884;53.562;9.940;2022-12-11T00:53:18;11.27;;;9.40;;
54983;SDS011;40884;53.562;9.940;2022-12-11T00:54:18;14.67;;;10.30;;
54983;SDS011;40884;53.562;9.940;2022-12-11T00:55:19;12.37;;;9.90;;
54983;SDS011;40884;53.562;9.940;2022-12-11T00:56:20;12.97;;;10.50;;
54983;SDS011;40884;53.562;9.940;2022-12-11T00:57:21;13.00;;;9.93;;
54983;SDS011;40884;53.562;9.940;2022-12-11T00:58:21;13.27;;;10.17;;
54983;SDS011;40884;53.562;9.940;2022-12-11T00:59:21;13.07;;;10.37;;
54983;SDS011;40884;53.562;9.940;2022-12-11T01:00:21;12.80;;;10.40;;
54983;SDS011;40884;53.562;9.940;2022-12-11T01:01:22;12.17;;;9.83;;
54983;SDS011;40884;53.562;9.940;2022-12-11T01:02:22;12.70;;;10.10;;
54983;SDS011;40884;53.562;9.940;2022-12-11T01:03:22;14.40;;;11.10;;
54983;SDS011;40884;53.562;9.940;2022-12-11T01:04:22;11.37;;;9.90;;
54983;SDS011;40884;53.562;9.940;2022-12-11T01:05:23;13.20;;;9.73;;
54983;SDS011;40884;53.562;9.940;2022-12-11T01:06:23;13.43;;;10.10;;
54983;SDS011;40884;53.562;9.940;2022-12-11T01:07:24;12.35;;;9.88;;
54983;SDS011;40884;53.562;9.940;2022-12-11T01:08:24;12.07;;;9.87;;
54983;SDS011;40884;53.562;9.940;2022-12-11T01:09:24;11.60;;;9.50;;
54983;SDS011;40884;53.562;9.940;2022-12-11T01:10:24;11.97;;;9.80;;
54983;SDS011;40884;53.562;9.940;2022-12-11T01:11:24;11.83;;;9.60;;
54983;SDS011;40884;53.562;9.940;2022-12-11T01:12:25;13.33;;;10.00;;
54983;SDS011;40884;53.562;9.940;2022-12-11T01:13:25;13.53;;;10.63;;
54983;SDS011;40884;53.562;9.940;2022-12-11T01:14:25;11.63;;;9.53;;
54983;SDS011;40884;53.562;9.940;2022-12-11T01:15:29;11.77;;;9.57;;
54983;SDS011;40884;53.562;9.940;2022-12-11T01:16:30;12.60;;;10.10;;
54983;SDS011;40884;53.562;9.940;2022-12-11T01:17:30;13.27;;;10.10;;
54983;SDS011;40884;53.562;9.940;2022-12-11T01:18:30;12.63;;;10.30;;
54983;SDS011;40884;53.562;9.940;2022-12-11T01:19:30;12.33;;;10.23;;
54983;SDS011;40884;53.562;9.940;2022-12-11T01:20:30;12.23;;;10.13;;
54983;SDS011;40884;53.562;9.940;2022-12-11T01:21:30;12.23;;;9.90;;
54983;SDS011;40884;53.562;9.940;2022-12-11T01:22:31;13.13;;;10.37;;
54983;SDS011;40884;53.562;9.940;2022-12-11T01:23:31;13.33;;;10.33;;
54983;SDS011;40884;53.562;9.940;2022-12-11T01:24:31;12.73;;;10.33;;
54983;SDS011;40884;53.562;9.940;2022-12-11T01:25:31;11.97;;;10.43;;
54983;SDS011;40884;53.562;9.940;2022-12-11T01:26:34;15.05;;;10.63;;
54983;SDS011;40884;53.562;9.940;2022-12-11T01:27:34;14.33;;;10.77;;
54983;SDS011;40884;53.562;9.940;2022-12-11T01:28:34;14.33;;;10.97;;
54983;SDS011;40884;53.562;9.940;2022-12-11T01:29:34;12.10;;;10.10;;
54983;SDS011;40884;53.562;9.940;2022-12-11T01:30:35;11.67;;;9.77;;
54983;SDS011;40884;53.562;9.940;2022-12-11T01:31:35;14.53;;;10.67;;
54983;SDS011;40884;53.562;9.940;2022-12-11T01:32:35;12.97;;;10.30;;
54983;SDS011;40884;53.562;9.940;2022-12-11T01:33:35;14.00;;;10.10;;
54983;SDS011;40884;53.562;9.940;2022-12-11T01:34:35;14.03;;;10.80;;
54983;SDS011;40884;53.562;9.940;2022-12-11T01:35:37;13.40;;;10.93;;
54983;SDS011;40884;53.562;9.940;2022-12-11T01:36:37;13.98;;;11.60;;
54983;SDS011;40884;53.562;9.940;2022-12-11T01:37:37;15.00;;;11.47;;
54983;SDS011;40884;53.562;9.940;2022-12-11T01:38:38;13.80;;;11.00;;
54983;SDS011;40884;53.562;9.940;2022-12-11T01:39:38;13.43;;;11.03;;
54983;SDS011;40884;53.562;9.940;2022-12-11T01:40:44;14.10;;;10.70;;
54983;SDS011;40884;53.562;9.940;2022-12-11T01:41:44;14.63;;;10.95;;
54983;SDS011;40884;53.562;9.940;2022-12-11T01:42:44;14.43;;;11.53;;
54983;SDS011;40884;53.562;9.940;2022-12-11T01:46:20;13.00;;;11.23;;
54983;SDS011;40884;53.562;9.940;2022-12-11T01:47:20;13.83;;;10.57;;
54983;SDS011;40884;53.562;9.940;2022-12-11T01:48:24;13.00;;;10.93;;
54983;SDS011;40884;53.562;9.940;2022-12-11T01:49:26;15.00;;;11.23;;
54983;SDS011;40884;53.562;9.940;2022-12-11T01:50:28;14.40;;;12.05;;
54983;SDS011;40884;53.562;9.940;2022-12-11T01:51:30;14.60;;;11.13;;
54983;SDS011;40884;53.562;9.940;2022-12-11T01:52:32;12.20;;;10.63;;
54983;SDS011;40884;53.562;9.940;2022-12-11T01:53:33;14.33;;;11.30;;
54983;SDS011;40884;53.562;9.940;2022-12-11T01:54:33;13.20;;;10.35;;
54983;SDS011;40884;53.562;9.940;2022-12-11T01:55:34;14.27;;;10.77;;
54983;SDS011;40884;53.562;9.940;2022-12-11T01:56:36;14.82;;;11.40;;
54983;SDS011;40884;53.562;9.940;2022-12-11T01:57:37;12.93;;;10.53;;
54983;SDS011;40884;53.562;9.940;2022-12-11T01:58:40;12.52;;;10.75;;
54983;SDS011;40884;53.562;9.940;2022-12-11T01:59:42;13.45;;;11.10;;
54983;SDS011;40884;53.562;9.940;2022-12-11T02:00:43;14.32;;;11.45;;
54983;SDS011;40884;53.562;9.940;2022-12-11T02:01:44;14.23;;;10.80;;
54983;SDS011;40884;53.562;9.940;2022-12-11T02:02:47;13.88;;;10.27;;
54983;SDS011;40884;53.562;9.940;2022-12-11T02:03:47;13.53;;;11.17;;
54983;SDS011;40884;53.562;9.940;2022-12-11T02:04:48;12.47;;;10.33;;
54983;SDS011;40884;53.562;9.940;2022-12-11T02:05:48;14.07;;;10.70;;
54983;SDS011;40884;53.562;9.940;2022-12-11T02:06:50;12.10;;;10.63;;
54983;SDS011;40884;53.562;9.940;2022-12-11T02:07:51;12.18;;;10.00;;
54983;SDS011;40884;53.562;9.940;2022-12-11T02:08:52;13.45;;;11.20;;
54983;SDS011;40884;53.562;9.940;2022-12-11T02:09:52;12.97;;;10.77;;
54983;SDS011;40884;53.562;9.940;2022-12-11T02:11:10;13.40;;;10.23;;
54983;SDS011;40884;53.562;9.940;2022-12-11T02:12:23;13.63;;;10.77;;
54983;SDS011;40884;53.562;9.940;2022-12-11T02:13:27;14.82;;;10.50;;
54983;SDS011;40884;53.562;9.940;2022-12-11T02:14:43;13.50;;;9.63;;
54983;SDS011;40884;53.562;9.940;2022-12-11T02:15:48;13.30;;;10.48;;
54983;SDS011;40884;53.562;9.940;2022-12-11T02:16:54;14.40;;;9.98;;
54983;SDS011;40884;53.562;9.940;2022-12-11T02:18:19;12.80;;;10.35;;
54983;SDS011;40884;53.562;9.940;2022-12-11T02:19:27;12.55;;;10.82;;
54983;SDS011;40884;53.562;9.940;2022-12-11T02:20:33;13.57;;;11.20;;
54983;SDS011;40884;53.562;9.940;2022-12-11T02:21:40;13.43;;;10.80;;
54983;SDS011;40884;53.562;9.940;2022-12-11T02:22:57;15.57;;;11.40;;
54983;SDS011;40884;53.562;9.940;2022-12-11T02:23:59;12.68;;;10.48;;
54983;SDS011;40884;53.562;9.940;2022-12-11T02:25:04;13.93;;;10.95;;
54983;SDS011;40884;53.562;9.940;2022-12-11T02:27:46;13.38;;;10.43;;
54983;SDS011;40884;53.562;9.940;2022-12-11T02:28:57;12.88;;;10.35;;
54983;SDS011;40884;53.562;9.940;2022-12-11T02:30:05;12.07;;;10.45;;
54983;SDS011;40884;53.562;9.940;2022-12-11T02:31:07;13.13;;;11.05;;
54983;SDS011;40884;53.562;9.940;2022-12-11T02:32:13;12.52;;;10.57;;
54983;SDS011;40884;53.562;9.940;2022-12-11T02:33:15;13.98;;;11.45;;
54983;SDS011;40884;53.562;9.940;2022-12-11T02:34:27;13.93;;;11.70;;
54983;SDS011;40884;53.562;9.940;2022-12-11T02:35:30;13.20;;;10.25;;
54983;SDS011;40884;53.562;9.940;2022-12-11T02:36:32;14.50;;;11.23;;
54983;SDS011;40884;53.562;9.940;2022-12-11T02:37:34;14.85;;;11.38;;
54983;SDS011;40884;53.562;9.940;2022-12-11T02:38:38;12.70;;;10.52;;
54983;SDS011;40884;53.562;9.940;2022-12-11T02:39:39;15.45;;;11.43;;
54983;SDS011;40884;53.562;9.940;2022-12-11T02:40:41;14.98;;;12.05;;
54983;SDS011;40884;53.562;9.940;2022-12-11T02:41:43;13.57;;;11.20;;
54983;SDS011;40884;53.562;9.940;2022-12-11T02:42:45;14.20;;;11.50;;
54983;SDS011;40884;53.562;9.940;2022-12-11T02:43:47;14.88;;;11.93;;
54983;SDS011;40884;53.562;9.940;2022-12-11T02:44:48;15.68;;;11.77;;
54983;SDS011;40884;53.562;9.940;2022-12-11T02:45:49;14.00;;;11.60;;
54983;SDS011;40884;53.562;9.940;2022-12-11T02:46:51;14.18;;;11.88;;
54983;SDS011;40884;53.562;9.940;2022-12-11T02:47:51;13.57;;;11.37;;
54983;SDS011;40884;53.562;9.940;2022-12-11T02:48:51;14.13;;;11.70;;
54983;SDS011;40884;53.562;9.940;2022-12-11T02:49:52;13.73;;;11.10;;
54983;SDS011;40884;53.562;9.940;2022-12-11T02:50:55;14.82;;;11.63;;
54983;SDS011;40884;53.562;9.940;2022-12-11T02:51:56;14.57;;;11.70;;
54983;SDS011;40884;53.562;9.940;2022-12-11T02:52:59;13.95;;;11.75;;
54983;SDS011;40884;53.562;9.940;2022-12-11T02:54:00;15.98;;;12.23;;
54983;SDS011;40884;53.562;9.940;2022-12-11T02:55:01;13.07;;;11.10;;
54983;SDS011;40884;53.562;9.940;2022-12-11T02:56:07;13.73;;;11.80;;
54983;SDS011;40884;53.562;9.940;2022-12-11T02:57:21;13.73;;;11.60;;
54983;SDS011;40884;53.562;9.940;2022-12-11T02:58:26;16.58;;;11.18;;
54983;SDS011;40884;53.562;9.940;2022-12-11T02:59:31;15.10;;;12.10;;
54983;SDS011;40884;53.562;9.940;2022-12-11T03:00:32;13.75;;;11.48;;
54983;SDS011;40884;53.562;9.940;2022-12-11T03:01:32;14.20;;;11.50;;
54983;SDS011;40884;53.562;9.940;2022-12-11T03:02:33;13.57;;;11.17;;
54983;SDS011;40884;53.562;9.940;2022-12-11T03:03:33;14.53;;;11.20;;
54983;SDS011;40884;53.562;9.940;2022-12-11T03:04:33;14.17;;;11.70;;
54983;SDS011;40884;53.562;9.940;2022-12-11T03:05:34;14.68;;;11.27;;
54983;SDS011;40884;53.562;9.940;2022-12-11T03:06:35;13.80;;;11.03;;
54983;SDS011;40884;53.562;9.940;2022-12-11T03:07:37;13.60;;;11.38;;
54983;SDS011;40884;53.562;9.940;2022-12-11T03:08:37;14.48;;;11.80;;
54983;SDS011;40884;53.562;9.940;2022-12-11T03:09:38;14.77;;;11.60;;
54983;SDS011;40884;53.562;9.940;2022-12-11T03:10:38;13.93;;;11.70;;
54983;SDS011;40884;53.562;9.940;2022-12-11T03:11:38;14.47;;;11.93;;
54983;SDS011;40884;53.562;9.940;2022-12-11T03:12:39;14.17;;;11.70;;
54983;SDS011;40884;53.562;9.940;2022-12-11T03:13:40;12.65;;;11.27;;
54983;SDS011;40884;53.562;9.940;2022-12-11T03:14:40;12.80;;;11.00;;
54983;SDS011;40884;53.562;9.940;2022-12-11T03:16:53;13.35;;;11.40;;
54983;SDS011;40884;53.562;9.940;2022-12-11T03:19:17;12.90;;;11.17;;
54983;SDS011;40884;53.562;9.940;2022-12-11T03:21:04;14.00;;;11.07;;
54983;SDS011;40884;53.562;9.940;2022-12-11T03:21:41;13.50;;;11.30;;
54983;SDS011;40884;53.562;9.940;2022-12-11T03:22:43;14.10;;;11.00;;
54983;SDS011;40884;53.562;9.940;2022-12-11T03:24:04;13.77;;;11.48;;
54983;SDS011;40884;53.562;9.940;2022-12-11T03:25:11;13.70;;;10.88;;
54983;SDS011;40884;53.562;9.940;2022-12-11T03:26:14;14.00;;;10.88;;
54983;SDS011;40884;53.562;9.940;2022-12-11T03:28:17;13.33;;;10.57;;
54983;SDS011;40884;53.562;9.940;2022-12-11T03:29:19;13.95;;;10.70;;
54983;SDS011;40884;53.562;9.940;2022-12-11T03:30:20;12.35;;;10.18;;
54983;SDS011;40884;53.562;9.940;2022-12-11T03:32:28;13.60;;;10.60;;
54983;SDS011;40884;53.562;9.940;2022-12-11T03:33:34;14.13;;;11.20;;
54983;SDS011;40884;53.562;9.940;2022-12-11T03:34:43;13.07;;;11.10;;
54983;SDS011;40884;53.562;9.940;2022-12-11T03:35:44;14.80;;;11.55;;
54983;SDS011;40884;53.562;9.940;2022-12-11T03:36:46;13.50;;;11.32;;
54983;SDS011;40884;53.562;9.940;2022-12-11T03:37:48;14.85;;;11.45;;
54983;SDS011;40884;53.562;9.940;2022-12-11T03:38:50;13.90;;;11.30;;
54983;SDS011;40884;53.562;9.940;2022-12-11T03:39:53;14.10;;;11.48;;
54983;SDS011;40884;53.562;9.940;2022-12-11T03:40:55;13.27;;;11.65;;
54983;SDS011;40884;53.562;9.940;2022-12-11T03:41:58;15.43;;;11.75;;
54983;SDS011;40884;53.562;9.940;2022-12-11T03:42:59;14.25;;;11.20;;
54983;SDS011;40884;53.562;9.940;2022-12-11T03:44:00;14.63;;;12.00;;
54983;SDS011;40884;53.562;9.940;2022-12-11T03:45:00;14.17;;;11.37;;
54983;SDS011;40884;53.562;9.940;2022-12-11T03:46:01;14.83;;;11.33;;
54983;SDS011;40884;53.562;9.940;2022-12-11T03:47:02;17.90;;;13.17;;
54983;SDS011;40884;53.562;9.940;2022-12-11T03:48:04;14.00;;;11.73;;
54983;SDS011;40884;53.562;9.940;2022-12-11T03:49:06;14.13;;;11.90;;
54983;SDS011;40884;53.562;9.940;2022-12-11T03:50:08;15.05;;;12.20;;
54983;SDS011;40884;53.562;9.940;2022-12-11T03:51:09;15.40;;;12.93;;
54983;SDS011;40884;53.562;9.940;2022-12-11T03:52:10;15.83;;;12.17;;
54983;SDS011;40884;53.562;9.940;2022-12-11T03:53:11;15.25;;;12.55;;
54983;SDS011;40884;53.562;9.940;2022-12-11T03:54:11;15.90;;;12.57;;
54983;SDS011;40884;53.562;9.940;2022-12-11T03:55:13;14.30;;;12.23;;
54983;SDS011;40884;53.562;9.940;2022-12-11T03:56:13;15.23;;;12.27;;
54983;SDS011;40884;53.562;9.940;2022-12-11T03:57:15;14.85;;;12.05;;
54983;SDS011;40884;53.562;9.940;2022-12-11T03:58:16;14.45;;;11.98;;
54983;SDS011;40884;53.562;9.940;2022-12-11T03:59:16;15.80;;;12.73;;
54983;SDS011;40884;53.562;9.940;2022-12-11T04:00:17;15.50;;;11.83;;
54983;SDS011;40884;53.562;9.940;2022-12-11T04:01:18;16.27;;;12.68;;
54983;SDS011;40884;53.562;9.940;2022-12-11T04:02:18;17.13;;;12.40;;
54983;SDS011;40884;53.562;9.940;2022-12-11T04:03:18;14.67;;;12.77;;
54983;SDS011;40884;53.562;9.940;2022-12-11T04:04:18;15.40;;;12.50;;
54983;SDS011;40884;53.562;9.940;2022-12-11T04:05:18;14.70;;;12.57;;
54983;SDS011;40884;53.562;9.940;2022-12-11T04:06:18;16.97;;;13.33;;
54983;SDS011;40884;53.562;9.940;2022-12-11T04:07:19;15.30;;;12.67;;
54983;SDS011;40884;53.562;9.940;2022-12-11T04:08:19;16.30;;;12.40;;
54983;SDS011;40884;53.562;9.940;2022-12-11T04:09:20;16.43;;;13.20;;
54983;SDS011;40884;53.562;9.940;2022-12-11T04:10:20;13.23;;;11.70;;
54983;SDS011;40884;53.562;9.940;2022-12-11T04:11:20;14.07;;;11.80;;
54983;SDS011;40884;53.562;9.940;2022-12-11T04:12:20;14.77;;;11.47;;
54983;SDS011;40884;53.562;9.940;2022-12-11T04:13:20;14.10;;;11.23;;
54983;SDS011;40884;53.562;9.940;2022-12-11T04:14:20;15.03;;;12.23;;
54983;SDS011;40884;53.562;9.940;2022-12-11T04:15:20;13.77;;;11.70;;
54983;SDS011;40884;53.562;9.940;2022-12-11T04:16:21;14.23;;;11.57;;
54983;SDS011;40884;53.562;9.940;2022-12-11T04:17:21;14.93;;;12.57;;
54983;SDS011;40884;53.562;9.940;2022-12-11T04:18:21;19.03;;;12.10;;
54983;SDS011;40884;53.562;9.940;2022-12-11T04:19:21;13.93;;;11.67;;
54983;SDS011;40884;53.562;9.940;2022-12-11T04:20:22;15.13;;;12.37;;
54983;SDS011;40884;53.562;9.940;2022-12-11T04:21:22;15.17;;;11.37;;
54983;SDS011;40884;53.562;9.940;2022-12-11T04:22:22;14.60;;;11.57;;
54983;SDS011;40884;53.562;9.940;2022-12-11T04:23:22;13.83;;;11.27;;
54983;SDS011;40884;53.562;9.940;2022-12-11T04:24:22;14.67;;;11.53;;
54983;SDS011;40884;53.562;9.940;2022-12-11T04:25:22;13.87;;;11.73;;
54983;SDS011;40884;53.562;9.940;2022-12-11T04:26:22;13.13;;;11.10;;
54983;SDS011;40884;53.562;9.940;2022-12-11T04:27:22;14.40;;;11.67;;
54983;SDS011;40884;53.562;9.940;2022-12-11T04:28:23;14.37;;;12.17;;
54983;SDS011;40884;53.562;9.940;2022-12-11T04:29:23;14.23;;;11.60;;
54983;SDS011;40884;53.562;9.940;2022-12-11T04:30:24;14.93;;;11.97;;
54983;SDS011;40884;53.562;9.940;2022-12-11T04:31:24;14.80;;;12.60;;
54983;SDS011;40884;53.562;9.940;2022-12-11T04:32:24;14.77;;;12.00;;
54983;SDS011;40884;53.562;9.940;2022-12-11T04:33:24;13.77;;;11.73;;
54983;SDS011;40884;53.562;9.940;2022-12-11T04:34:24;14.13;;;11.57;;
54983;SDS011;40884;53.562;9.940;2022-12-11T04:35:24;15.40;;;12.13;;
54983;SDS011;40884;53.562;9.940;2022-12-11T04:36:25;13.53;;;11.23;;
54983;SDS011;40884;53.562;9.940;2022-12-11T04:37:25;15.00;;;12.27;;
54983;SDS011;40884;53.562;9.940;2022-12-11T04:38:26;13.90;;;11.45;;
54983;SDS011;40884;53.562;9.940;2022-12-11T04:39:26;13.73;;;11.67;;
54983;SDS011;40884;53.562;9.940;2022-12-11T04:40:26;15.43;;;12.23;;
54983;SDS011;40884;53.562;9.940;2022-12-11T04:41:26;14.47;;;11.27;;
54983;SDS011;40884;53.562;9.940;2022-12-11T04:42:26;13.87;;;11.83;;
54983;SDS011;40884;53.562;9.940;2022-12-11T04:43:27;14.90;;;11.67;;
54983;SDS011;40884;53.562;9.940;2022-12-11T04:44:27;14.80;;;11.90;;
54983;SDS011;40884;53.562;9.940;2022-12-11T04:45:27;15.70;;;11.60;;
54983;SDS011;40884;53.562;9.940;2022-12-11T04:46:27;14.93;;;11.87;;
54983;SDS011;40884;53.562;9.940;2022-12-11T04:47:27;14.57;;;11.77;;
54983;SDS011;40884;53.562;9.940;2022-12-11T04:48:27;15.10;;;11.97;;
54983;SDS011;40884;53.562;9.940;2022-12-11T04:49:27;14.20;;;11.53;;
54983;SDS011;40884;53.562;9.940;2022-12-11T04:50:28;14.50;;;11.83;;
54983;SDS011;40884;53.562;9.940;2022-12-11T04:51:28;13.50;;;11.73;;
54983;SDS011;40884;53.562;9.940;2022-12-11T04:52:28;14.50;;;11.57;;
54983;SDS011;40884;53.562;9.940;2022-12-11T04:53:28;15.07;;;11.70;;
54983;SDS011;40884;53.562;9.940;2022-12-11T04:54:29;14.93;;;11.93;;
54983;SDS011;40884;53.562;9.940;2022-12-11T04:55:29;15.40;;;11.70;;
54983;SDS011;40884;53.562;9.940;2022-12-11T04:56:29;13.70;;;11.50;;
54983;SDS011;40884;53.562;9.940;2022-12-11T04:57:29;13.43;;;11.67;;
54983;SDS011;40884;53.562;9.940;2022-12-11T04:58:29;14.00;;;11.23;;
54983;SDS011;40884;53.562;9.940;2022-12-11T04:59:30;14.47;;;11.20;;
54983;SDS011;40884;53.562;9.940;2022-12-11T05:00:30;15.10;;;11.18;;
54983;SDS011;40884;53.562;9.940;2022-12-11T05:01:30;14.33;;;11.13;;
54983;SDS011;40884;53.562;9.940;2022-12-11T05:02:33;14.47;;;11.90;;
54983;SDS011;40884;53.562;9.940;2022-12-11T05:03:33;13.95;;;11.52;;
54983;SDS011;40884;53.562;9.940;2022-12-11T05:04:34;13.87;;;11.20;;
54983;SDS011;40884;53.562;9.940;2022-12-11T05:05:34;14.33;;;11.50;;
54983;SDS011;40884;53.562;9.940;2022-12-11T05:06:34;15.00;;;11.80;;
54983;SDS011;40884;53.562;9.940;2022-12-11T05:07:34;14.20;;;11.60;;
54983;SDS011;40884;53.562;9.940;2022-12-11T05:08:35;14.87;;;11.57;;
54983;SDS011;40884;53.562;9.940;2022-12-11T05:09:36;14.13;;;10.40;;
54983;SDS011;40884;53.562;9.940;2022-12-11T05:10:36;14.43;;;11.60;;
54983;SDS011;40884;53.562;9.940;2022-12-11T05:11:36;16.07;;;12.50;;
54983;SDS011;40884;53.562;9.940;2022-12-11T05:12:37;14.73;;;11.80;;
54983;SDS011;40884;53.562;9.940;2022-12-11T05:13:37;14.33;;;11.40;;
54983;SDS011;40884;53.562;9.940;2022-12-11T05:14:37;15.77;;;12.13;;
54983;SDS011;40884;53.562;9.940;2022-12-11T05:15:38;13.77;;;11.40;;
54983;SDS011;40884;53.562;9.940;2022-12-11T05:16:38;13.70;;;11.13;;
54983;SDS011;40884;53.562;9.940;2022-12-11T05:17:38;14.93;;;11.73;;
54983;SDS011;40884;53.562;9.940;2022-12-11T05:18:38;14.90;;;10.43;;
54983;SDS011;40884;53.562;9.940;2022-12-11T05:19:38;12.77;;;11.30;;
54983;SDS011;40884;53.562;9.940;2022-12-11T05:20:39;16.10;;;11.80;;
54983;SDS011;40884;53.562;9.940;2022-12-11T05:21:39;15.43;;;12.20;;
54983;SDS011;40884;53.562;9.940;2022-12-11T05:22:39;14.43;;;11.63;;
54983;SDS011;40884;53.562;9.940;2022-12-11T05:23:39;15.73;;;10.60;;
54983;SDS011;40884;53.562;9.940;2022-12-11T05:24:39;14.37;;;11.77;;
54983;SDS011;40884;53.562;9.940;2022-12-11T05:25:39;16.20;;;11.40;;
54983;SDS011;40884;53.562;9.940;2022-12-11T05:26:40;14.07;;;11.77;;
54983;SDS011;40884;53.562;9.940;2022-12-11T05:27:40;13.27;;;11.20;;
54983;SDS011;40884;53.562;9.940;2022-12-11T05:28:40;14.60;;;11.37;;
54983;SDS011;40884;53.562;9.940;2022-12-11T05:29:40;15.70;;;12.20;;
54983;SDS011;40884;53.562;9.940;2022-12-11T05:30:40;15.73;;;11.50;;
54983;SDS011;40884;53.562;9.940;2022-12-11T05:31:40;14.43;;;11.70;;
54983;SDS011;40884;53.562;9.940;2022-12-11T05:32:41;14.07;;;11.43;;
54983;SDS011;40884;53.562;9.940;2022-12-11T05:33:41;13.40;;;11.27;;
54983;SDS011;40884;53.562;9.940;2022-12-11T05:34:41;14.30;;;11.67;;
54983;SDS011;40884;53.562;9.940;2022-12-11T05:35:45;12.93;;;10.83;;
54983;SDS011;40884;53.562;9.940;2022-12-11T05:36:45;13.05;;;10.65;;
54983;SDS011;40884;53.562;9.940;2022-12-11T05:37:45;14.67;;;11.80;;
54983;SDS011;40884;53.562;9.940;2022-12-11T05:38:46;14.83;;;12.20;;
54983;SDS011;40884;53.562;9.940;2022-12-11T05:39:46;13.87;;;11.40;;
54983;SDS011;40884;53.562;9.940;2022-12-11T05:40:59;14.07;;;11.10;;
54983;SDS011;40884;53.562;9.940;2022-12-11T05:42:00;14.18;;;11.13;;
54983;SDS011;40884;53.562;9.940;2022-12-11T05:43:00;15.53;;;11.30;;
54983;SDS011;40884;53.562;9.940;2022-12-11T05:44:00;15.13;;;11.10;;
54983;SDS011;40884;53.562;9.940;2022-12-11T05:45:00;17.57;;;12.20;;
54983;SDS011;40884;53.562;9.940;2022-12-11T05:46:07;13.90;;;11.03;;
54983;SDS011;40884;53.562;9.940;2022-12-11T05:47:07;14.15;;;11.50;;
54983;SDS011;40884;53.562;9.940;2022-12-11T05:48:07;13.23;;;10.73;;
54983;SDS011;40884;53.562;9.940;2022-12-11T05:49:09;14.33;;;11.10;;
54983;SDS011;40884;53.562;9.940;2022-12-11T05:50:09;12.38;;;10.23;;
54983;SDS011;40884;53.562;9.940;2022-12-11T05:51:09;12.53;;;10.40;;
54983;SDS011;40884;53.562;9.940;2022-12-11T05:52:09;12.67;;;10.57;;
54983;SDS011;40884;53.562;9.940;2022-12-11T05:53:09;12.93;;;11.07;;
54983;SDS011;40884;53.562;9.940;2022-12-11T05:54:10;12.60;;;10.33;;
54983;SDS011;40884;53.562;9.940;2022-12-11T05:55:10;14.40;;;11.30;;
54983;SDS011;40884;53.562;9.940;2022-12-11T05:56:14;13.43;;;11.10;;
54983;SDS011;40884;53.562;9.940;2022-12-11T05:57:15;12.88;;;10.65;;
54983;SDS011;40884;53.562;9.940;2022-12-11T05:58:15;13.80;;;11.30;;
54983;SDS011;40884;53.562;9.940;2022-12-11T05:59:16;13.30;;;10.60;;
54983;SDS011;40884;53.562;9.940;2022-12-11T06:00:16;13.17;;;10.50;;
54983;SDS011;40884;53.562;9.940;2022-12-11T06:01:23;13.03;;;10.60;;
54983;SDS011;40884;53.562;9.940;2022-12-11T06:02:23;13.85;;;11.00;;
54983;SDS011;40884;53.562;9.940;2022-12-11T06:03:24;14.43;;;11.40;;
54983;SDS011;40884;53.562;9.940;2022-12-11T06:04:24;14.10;;;11.73;;
54983;SDS011;40884;53.562;9.940;2022-12-11T06:05:24;14.13;;;11.37;;
54983;SDS011;40884;53.562;9.940;2022-12-11T06:06:24;13.10;;;10.70;;
54983;SDS011;40884;53.562;9.940;2022-12-11T06:07:25;15.37;;;11.90;;
54983;SDS011;40884;53.562;9.940;2022-12-11T06:08:25;14.17;;;10.97;;
54983;SDS011;40884;53.562;9.940;2022-12-11T06:09:25;14.93;;;11.27;;